createdAt,value
2017-08-06T00:01:31.916Z,7.28
2017-08-06T00:04:00.291Z,6.50
2017-08-06T00:06:27.948Z,7.43
2017-08-06T00:08:55.464Z,7.50
2017-08-06T00:11:23.084Z,7.25
2017-08-06T00:13:50.738Z,7.72
2017-08-06T00:16:18.429Z,5.90
2017-08-06T00:18:46.485Z,7.15
2017-08-06T00:21:14.114Z,7.97
2017-08-06T00:23:41.600Z,6.62
2017-08-06T00:26:09.139Z,7.45
2017-08-06T00:28:36.781Z,7.32
2017-08-06T00:31:04.361Z,7.95
2017-08-06T00:33:31.922Z,7.75
2017-08-06T00:36:00.196Z,7.15
2017-08-06T00:38:27.721Z,7.93
2017-08-06T00:40:55.226Z,6.75
2017-08-06T00:43:22.743Z,8.48
2017-08-06T00:45:50.361Z,7.47
2017-08-06T00:48:18.012Z,6.90
2017-08-06T00:50:45.514Z,7.30
2017-08-06T00:53:13.038Z,7.37
2017-08-06T00:55:41.310Z,7.85
2017-08-06T00:58:09.733Z,8.02
2017-08-06T01:00:37.363Z,8.30
2017-08-06T01:03:05.015Z,7.20
2017-08-06T01:05:32.521Z,7.53
2017-08-06T01:08:00.029Z,6.40
2017-08-06T01:10:28.425Z,6.50
2017-08-06T01:12:56.126Z,7.32
2017-08-06T01:15:23.659Z,8.07
2017-08-06T01:17:51.154Z,7.20
2017-08-06T01:20:18.858Z,8.73
2017-08-06T01:22:46.400Z,8.52
2017-08-06T01:25:14.801Z,7.70
2017-08-06T01:27:42.447Z,9.07
2017-08-06T01:30:10.007Z,7.00
2017-08-06T01:35:15.102Z,7.30
2017-08-06T01:37:42.582Z,8.20
2017-08-06T01:40:10.117Z,8.00
2017-08-06T01:42:37.668Z,8.10
2017-08-06T01:45:05.338Z,9.05
2017-08-06T01:47:32.984Z,8.00
2017-08-06T01:50:00.489Z,7.85
2017-08-06T01:52:28.099Z,8.48
2017-08-06T01:54:55.745Z,8.82
2017-08-06T01:57:23.248Z,10.18
2017-08-06T01:59:50.913Z,9.38
2017-08-06T02:02:18.452Z,9.30
2017-08-06T02:04:46.093Z,9.65
2017-08-06T02:07:14.395Z,8.82
2017-08-06T02:09:41.919Z,8.55
2017-08-06T02:12:09.482Z,10.38
2017-08-06T02:14:37.062Z,11.32
2017-08-06T02:17:04.722Z,8.23
2017-08-06T02:19:32.251Z,9.55
2017-08-06T02:21:59.822Z,10.32
2017-08-06T02:24:27.512Z,9.05
2017-08-06T02:26:55.270Z,11.38
2017-08-06T02:29:23.556Z,10.55
2017-08-06T02:31:51.106Z,9.18
2017-08-06T02:34:18.673Z,9.68
2017-08-06T02:36:46.954Z,9.95
2017-08-06T02:39:14.511Z,8.93
2017-08-06T02:41:42.170Z,10.10
2017-08-06T02:44:09.843Z,9.13
2017-08-06T02:46:37.484Z,9.05
2017-08-06T02:49:05.046Z,9.82
2017-08-06T02:51:33.330Z,11.30
2017-08-06T02:54:01.729Z,9.65
2017-08-06T02:56:29.260Z,8.93
2017-08-06T02:58:57.649Z,9.00
2017-08-06T03:01:25.174Z,11.80
2017-08-06T03:03:52.682Z,9.32
2017-08-06T03:06:20.183Z,10.10
2017-08-06T03:08:47.792Z,10.52
2017-08-06T03:11:16.068Z,8.95
2017-08-06T03:13:43.631Z,10.77
2017-08-06T03:16:11.146Z,9.32
2017-08-06T03:18:38.738Z,9.20
2017-08-06T03:21:06.246Z,10.52
2017-08-06T03:23:33.764Z,9.18
2017-08-06T03:26:02.020Z,9.88
2017-08-06T03:28:29.536Z,10.35
2017-08-06T03:30:57.272Z,7.62
2017-08-06T03:33:24.908Z,8.73
2017-08-06T03:35:52.406Z,10.88
2017-08-06T03:38:20.021Z,10.07
2017-08-06T03:40:47.596Z,11.90
2017-08-06T03:43:15.848Z,10.82
2017-08-06T03:45:43.373Z,10.27
2017-08-06T03:48:10.953Z,7.30
2017-08-06T03:50:38.469Z,9.30
2017-08-06T03:53:06.010Z,8.13
2017-08-06T03:55:33.552Z,11.02
2017-08-06T03:58:01.046Z,11.80
2017-08-06T04:00:29.445Z,12.65
2017-08-06T04:02:56.975Z,11.10
2017-08-06T04:05:25.263Z,9.15
2017-08-06T04:07:52.831Z,10.98
2017-08-06T04:10:20.394Z,10.75
2017-08-06T04:12:47.894Z,6.68
2017-08-06T04:15:15.481Z,9.50
2017-08-06T04:17:43.071Z,10.00
2017-08-06T04:20:10.740Z,10.90
2017-08-06T04:22:38.248Z,8.75
2017-08-06T04:25:05.769Z,7.55
2017-08-06T04:27:33.303Z,6.32
2017-08-06T04:30:00.979Z,9.57
2017-08-06T04:32:28.519Z,9.20
2017-08-06T04:34:56.006Z,7.05
2017-08-06T04:37:23.718Z,8.80
2017-08-06T04:39:51.350Z,8.95
2017-08-06T04:42:18.880Z,9.38
2017-08-06T04:44:46.409Z,9.32
2017-08-06T04:47:13.999Z,9.68
2017-08-06T04:49:41.659Z,8.90
2017-08-06T04:52:09.348Z,8.95
2017-08-06T04:54:36.848Z,8.70
2017-08-06T04:57:04.659Z,9.55
2017-08-06T04:59:32.145Z,7.50
2017-08-06T05:01:59.647Z,8.50
2017-08-06T05:04:27.923Z,7.90
2017-08-06T05:06:56.316Z,7.62
2017-08-06T05:09:24.689Z,6.80
2017-08-06T05:11:52.960Z,5.07
2017-08-06T05:14:21.356Z,6.85
2017-08-06T05:16:49.015Z,4.93
2017-08-06T05:19:17.337Z,5.60
2017-08-06T05:21:44.847Z,5.22
2017-08-06T05:24:13.220Z,5.85
2017-08-06T05:26:40.705Z,4.37
2017-08-06T05:29:08.342Z,4.75
2017-08-06T05:31:36.035Z,4.47
2017-08-06T05:34:03.570Z,3.90
2017-08-06T05:36:31.112Z,3.58
2017-08-06T05:38:58.803Z,4.28
2017-08-06T05:41:26.368Z,4.60
2017-08-06T05:43:53.861Z,4.03
2017-08-06T05:46:21.589Z,4.55
2017-08-06T05:48:49.099Z,2.92
2017-08-06T05:51:16.575Z,5.07
2017-08-06T05:53:44.302Z,7.07
2017-08-06T05:56:12.048Z,4.40
2017-08-06T05:58:39.672Z,2.95
2017-08-06T06:01:07.338Z,4.50
2017-08-06T06:03:35.001Z,3.55
2017-08-06T06:06:02.507Z,3.15
2017-08-06T06:08:30.127Z,3.80
2017-08-06T06:10:57.623Z,3.15
2017-08-06T06:13:25.242Z,3.33
2017-08-06T06:15:52.741Z,3.85
2017-08-06T06:18:20.362Z,3.12
2017-08-06T06:20:47.847Z,3.30
2017-08-06T06:23:16.203Z,2.67
2017-08-06T06:25:44.587Z,3.20
2017-08-06T06:28:12.266Z,3.90
2017-08-06T06:30:40.441Z,2.90
2017-08-06T06:33:07.943Z,3.00
2017-08-06T06:35:35.459Z,3.08
2017-08-06T06:38:02.945Z,3.67
2017-08-06T06:40:30.455Z,2.70
2017-08-06T06:42:58.715Z,3.05
2017-08-06T06:45:26.221Z,3.35
2017-08-06T06:47:53.786Z,3.28
2017-08-06T06:50:21.282Z,3.75
2017-08-06T06:52:48.793Z,2.55
2017-08-06T06:55:16.339Z,2.33
2017-08-06T06:57:45.151Z,3.40
2017-08-06T07:00:12.657Z,2.70
2017-08-06T07:02:40.227Z,2.72
2017-08-06T07:05:07.802Z,2.30
2017-08-06T07:07:35.307Z,3.25
2017-08-06T07:10:02.866Z,2.70
2017-08-06T07:12:30.403Z,2.50
2017-08-06T07:14:57.934Z,2.37
2017-08-06T07:17:26.190Z,2.70
2017-08-06T07:19:53.816Z,2.60
2017-08-06T07:22:21.296Z,2.05
2017-08-06T07:24:48.822Z,1.98
2017-08-06T07:27:16.378Z,1.52
2017-08-06T07:29:44.086Z,2.03
2017-08-06T07:32:11.591Z,2.22
2017-08-06T07:34:39.157Z,1.35
2017-08-06T07:37:06.811Z,1.65
2017-08-06T07:39:34.425Z,2.20
2017-08-06T07:42:01.916Z,1.73
2017-08-06T07:44:29.439Z,1.67
2017-08-06T07:46:56.937Z,1.58
2017-08-06T07:49:25.324Z,2.00
2017-08-06T07:51:52.989Z,1.00
2017-08-06T07:54:20.533Z,1.58
2017-08-06T07:56:48.997Z,1.87
2017-08-06T07:59:16.498Z,1.20
2017-08-06T08:01:44.134Z,2.37
2017-08-06T08:04:12.569Z,1.20
2017-08-06T08:06:40.062Z,1.45
2017-08-06T08:09:07.578Z,1.60
2017-08-06T08:11:36.224Z,1.90
2017-08-06T08:14:04.528Z,1.75
2017-08-06T08:16:32.263Z,1.55
2017-08-06T08:18:59.771Z,1.45
2017-08-06T08:21:27.286Z,1.75
2017-08-06T08:23:55.678Z,2.67
2017-08-06T08:26:23.148Z,1.90
2017-08-06T08:28:50.791Z,2.00
2017-08-06T08:31:20.414Z,1.35
2017-08-06T08:33:47.965Z,1.42
2017-08-06T08:36:15.454Z,1.50
2017-08-06T08:38:42.929Z,1.70
2017-08-06T08:41:10.558Z,1.17
2017-08-06T08:43:38.230Z,1.45
2017-08-06T08:46:05.747Z,1.50
2017-08-06T08:48:34.009Z,1.87
2017-08-06T08:51:01.534Z,1.30
2017-08-06T08:53:29.069Z,1.35
2017-08-06T08:55:56.580Z,1.05
2017-08-06T08:58:24.226Z,1.50
2017-08-06T09:00:51.736Z,1.30
2017-08-06T09:03:19.994Z,1.70
2017-08-06T09:05:47.796Z,1.48
2017-08-06T09:08:15.305Z,1.75
2017-08-06T09:10:42.792Z,1.67
2017-08-06T09:13:11.082Z,1.67
2017-08-06T09:15:38.593Z,1.20
2017-08-06T09:18:06.090Z,0.90
2017-08-06T09:20:33.581Z,1.50
2017-08-06T09:23:01.058Z,1.00
2017-08-06T09:25:28.671Z,1.85
2017-08-06T09:27:56.203Z,1.67
2017-08-06T09:30:23.779Z,1.45
2017-08-06T09:32:51.285Z,1.20
2017-08-06T09:35:18.848Z,0.82
2017-08-06T09:37:46.363Z,1.10
2017-08-06T09:40:13.863Z,1.50
2017-08-06T09:42:41.494Z,1.40
2017-08-06T09:45:09.154Z,0.88
2017-08-06T09:47:37.508Z,0.70
2017-08-06T09:50:04.991Z,1.23
2017-08-06T09:52:33.374Z,1.05
2017-08-06T09:55:01.042Z,1.27
2017-08-06T09:57:28.736Z,1.62
2017-08-06T09:59:56.224Z,1.20
2017-08-06T10:02:23.783Z,1.58
2017-08-06T10:04:51.303Z,1.05
2017-08-06T10:07:18.823Z,1.05
2017-08-06T10:09:47.134Z,1.10
2017-08-06T10:12:14.667Z,1.30
2017-08-06T10:14:42.157Z,1.35
2017-08-06T10:17:09.672Z,1.35
2017-08-06T10:19:37.206Z,1.20
2017-08-06T10:22:04.717Z,0.85
2017-08-06T10:24:32.222Z,0.70
2017-08-06T10:26:59.705Z,1.23
2017-08-06T10:29:27.315Z,1.30
2017-08-06T10:31:54.831Z,0.80
2017-08-06T10:34:22.359Z,1.37
2017-08-06T10:36:49.935Z,1.23
2017-08-06T10:39:18.227Z,0.80
2017-08-06T10:41:46.509Z,1.58
2017-08-06T10:44:14.803Z,1.42
2017-08-06T10:46:42.572Z,1.02
2017-08-06T10:49:10.141Z,1.10
2017-08-06T10:51:38.223Z,1.05
2017-08-06T10:54:05.884Z,0.95
2017-08-06T10:56:33.474Z,1.00
2017-08-06T10:59:01.087Z,0.88
2017-08-06T11:01:28.558Z,1.23
2017-08-06T11:03:56.065Z,0.80
2017-08-06T11:06:23.576Z,1.20
2017-08-06T11:08:51.099Z,0.93
2017-08-06T11:11:18.814Z,1.10
2017-08-06T11:13:46.301Z,1.20
2017-08-06T11:16:13.820Z,1.33
2017-08-06T11:18:41.355Z,1.17
2017-08-06T11:21:08.908Z,1.15
2017-08-06T11:23:37.199Z,1.02
2017-08-06T11:26:06.887Z,1.25
2017-08-06T11:28:35.184Z,1.23
2017-08-06T11:31:03.463Z,1.20
2017-08-06T11:33:30.974Z,1.30
2017-08-06T11:35:58.495Z,1.10
2017-08-06T11:38:25.998Z,1.30
2017-08-06T11:40:53.510Z,1.35
2017-08-06T11:43:24.290Z,1.20
2017-08-06T11:45:51.841Z,1.55
2017-08-06T11:48:19.385Z,1.42
2017-08-06T11:50:46.882Z,1.27
2017-08-06T11:53:14.369Z,1.33
2017-08-06T11:55:41.948Z,1.23
2017-08-06T11:58:09.478Z,0.80
2017-08-06T12:00:37.144Z,1.15
2017-08-06T12:03:04.683Z,1.33
2017-08-06T12:05:33.060Z,1.00
2017-08-06T12:08:00.567Z,0.93
2017-08-06T12:10:28.081Z,1.20
2017-08-06T12:12:55.662Z,1.35
2017-08-06T12:15:23.943Z,0.98
2017-08-06T12:17:51.475Z,1.12
2017-08-06T12:20:19.045Z,1.05
2017-08-06T12:22:46.536Z,1.40
2017-08-06T12:25:14.038Z,1.10
2017-08-06T12:27:41.541Z,1.12
2017-08-06T12:30:09.812Z,1.17
2017-08-06T12:32:38.091Z,1.10
2017-08-06T12:35:06.384Z,1.20
2017-08-06T12:37:33.903Z,1.40
2017-08-06T12:40:01.396Z,1.20
2017-08-06T12:42:28.944Z,1.23
2017-08-06T12:44:57.529Z,1.87
2017-08-06T12:47:25.004Z,1.00
2017-08-06T12:49:52.503Z,1.00
2017-08-06T12:52:20.921Z,1.10
2017-08-06T12:54:48.629Z,0.85
2017-08-06T12:57:16.292Z,0.98
2017-08-06T12:59:44.023Z,1.35
2017-08-06T13:02:12.312Z,1.15
2017-08-06T13:04:39.973Z,1.70
2017-08-06T13:07:07.470Z,1.40
2017-08-06T13:09:34.977Z,1.10
2017-08-06T13:12:02.494Z,0.95
2017-08-06T13:14:30.017Z,1.20
2017-08-06T13:16:57.528Z,1.27
2017-08-06T13:19:25.007Z,1.27
2017-08-06T13:21:52.507Z,1.10
2017-08-06T13:24:20.041Z,1.23
2017-08-06T13:26:48.286Z,1.12
2017-08-06T13:29:15.763Z,1.35
2017-08-06T13:31:44.057Z,1.02
2017-08-06T13:34:11.586Z,0.80
2017-08-06T13:36:39.096Z,1.00
2017-08-06T13:39:06.623Z,1.20
2017-08-06T13:41:34.916Z,1.60
2017-08-06T13:44:02.426Z,0.90
2017-08-06T13:46:29.933Z,0.90
2017-08-06T13:48:57.456Z,1.30
2017-08-06T13:51:24.944Z,0.90
2017-08-06T13:53:53.197Z,1.12
2017-08-06T13:56:20.825Z,1.25
2017-08-06T13:58:48.331Z,1.10
2017-08-06T14:01:16.603Z,1.00
2017-08-06T14:03:45.016Z,1.00
2017-08-06T14:06:12.705Z,1.58
2017-08-06T14:08:40.577Z,1.20
2017-08-06T14:11:08.094Z,0.90
2017-08-06T14:13:35.719Z,1.20
2017-08-06T14:16:03.254Z,1.02
2017-08-06T14:18:30.856Z,1.10
2017-08-06T14:20:59.124Z,1.48
2017-08-06T14:23:26.826Z,1.00
2017-08-06T14:25:54.363Z,0.95
2017-08-06T14:28:21.867Z,1.17
2017-08-06T14:30:49.376Z,1.10
2017-08-06T14:33:16.905Z,1.15
2017-08-06T14:35:44.426Z,1.00
2017-08-06T14:38:11.923Z,1.02
2017-08-06T14:40:39.455Z,0.88
2017-08-06T14:43:06.969Z,0.90
2017-08-06T14:45:34.514Z,1.50
2017-08-06T14:48:02.050Z,1.10
2017-08-06T14:50:29.560Z,1.70
2017-08-06T14:52:57.073Z,1.70
2017-08-06T14:55:24.597Z,1.10
2017-08-06T14:57:53.086Z,1.10
2017-08-06T15:00:20.598Z,1.25
2017-08-06T15:02:48.140Z,1.40
2017-08-06T15:05:15.661Z,1.80
2017-08-06T15:07:43.258Z,2.25
2017-08-06T15:10:10.917Z,1.40
2017-08-06T15:12:38.512Z,1.70
2017-08-06T15:15:06.056Z,1.25
2017-08-06T15:17:33.586Z,1.58
2017-08-06T15:20:01.069Z,1.40
2017-08-06T15:22:28.603Z,1.20
2017-08-06T15:24:56.896Z,1.40
2017-08-06T15:27:24.417Z,0.93
2017-08-06T15:29:52.163Z,0.90
2017-08-06T15:32:19.854Z,1.40
2017-08-06T15:34:47.376Z,1.85
2017-08-06T15:37:15.640Z,1.10
2017-08-06T15:39:43.313Z,1.37
2017-08-06T15:42:12.784Z,1.35
2017-08-06T15:44:40.616Z,1.20
2017-08-06T15:47:08.284Z,1.58
2017-08-06T15:49:35.928Z,1.62
2017-08-06T15:52:03.498Z,1.50
2017-08-06T15:54:31.068Z,1.80
2017-08-06T15:56:58.567Z,1.45
2017-08-06T15:59:26.094Z,1.12
2017-08-06T16:01:53.588Z,1.27
2017-08-06T16:04:21.182Z,1.20
2017-08-06T16:06:49.430Z,1.25
2017-08-06T16:09:16.949Z,1.42
2017-08-06T16:11:44.619Z,0.90
2017-08-06T16:14:12.187Z,1.40
2017-08-06T16:16:39.791Z,1.90
2017-08-06T16:19:07.355Z,2.75
2017-08-06T16:21:35.636Z,1.10
2017-08-06T16:24:03.140Z,1.40
2017-08-06T16:26:30.638Z,1.12
2017-08-06T16:28:58.165Z,0.90
2017-08-06T16:31:25.687Z,1.40
2017-08-06T16:33:53.257Z,1.50
2017-08-06T16:36:20.815Z,1.20
2017-08-06T16:38:48.403Z,1.35
2017-08-06T16:41:15.948Z,1.20
2017-08-06T16:43:43.462Z,1.00
2017-08-06T16:46:11.031Z,1.30
2017-08-06T16:48:38.725Z,0.90
2017-08-06T16:51:06.240Z,1.10
2017-08-06T16:53:34.178Z,1.00
2017-08-06T16:56:01.712Z,0.88
2017-08-06T16:58:29.487Z,0.98
2017-08-06T17:01:05.488Z,0.80
2017-08-06T17:03:33.002Z,1.25
2017-08-06T17:06:00.519Z,1.20
2017-08-06T17:08:28.799Z,1.00
2017-08-06T17:10:57.239Z,1.30
2017-08-06T17:13:24.758Z,1.00
2017-08-06T17:15:52.319Z,1.10
2017-08-06T17:18:19.857Z,1.00
2017-08-06T17:20:48.278Z,1.30
2017-08-06T17:23:15.797Z,1.10
2017-08-06T17:25:43.461Z,1.40
2017-08-06T17:28:11.757Z,1.20
2017-08-06T17:30:39.719Z,1.17
2017-08-06T17:33:07.537Z,1.00
2017-08-06T17:35:35.185Z,1.30
2017-08-06T17:38:02.918Z,1.00
2017-08-06T17:40:30.650Z,1.40
2017-08-06T17:42:58.155Z,1.40
2017-08-06T17:45:25.700Z,0.98
2017-08-06T17:47:53.486Z,0.90
2017-08-06T17:50:21.124Z,1.10
2017-08-06T17:52:49.402Z,1.33
2017-08-06T17:55:17.677Z,1.45
2017-08-06T17:57:46.068Z,0.90
2017-08-06T18:00:13.565Z,1.20
2017-08-06T18:02:41.102Z,1.73
2017-08-06T18:05:08.603Z,1.10
2017-08-06T18:07:36.264Z,1.30
2017-08-06T18:10:03.773Z,1.17
2017-08-06T18:12:31.274Z,1.08
2017-08-06T18:14:58.777Z,2.22
2017-08-06T18:17:27.045Z,1.50
2017-08-06T18:19:55.300Z,1.10
2017-08-06T18:22:22.820Z,1.48
2017-08-06T18:24:50.427Z,1.65
2017-08-06T18:27:17.916Z,1.45
2017-08-06T18:29:45.595Z,1.50
2017-08-06T18:32:13.096Z,1.10
2017-08-06T18:34:40.660Z,1.17
2017-08-06T18:37:08.141Z,1.33
2017-08-06T18:39:36.538Z,1.40
2017-08-06T18:42:04.062Z,1.23
2017-08-06T18:44:31.657Z,1.77
2017-08-06T18:46:59.208Z,1.80
2017-08-06T18:49:27.491Z,1.85
2017-08-06T18:51:55.042Z,1.85
2017-08-06T18:54:22.580Z,1.60
2017-08-06T18:56:50.079Z,1.83
2017-08-06T18:59:17.703Z,1.60
2017-08-06T19:01:46.096Z,1.50
2017-08-06T19:04:13.622Z,1.10
2017-08-06T19:06:41.925Z,2.15
2017-08-06T19:09:09.471Z,2.80
2017-08-06T19:11:36.975Z,2.20
2017-08-06T19:14:04.520Z,2.05
2017-08-06T19:16:32.785Z,2.22
2017-08-06T19:19:01.032Z,2.45
2017-08-06T19:21:28.808Z,2.15
2017-08-06T19:23:56.353Z,1.90
2017-08-06T19:26:24.853Z,1.45
2017-08-06T19:28:53.665Z,1.55
2017-08-06T19:31:21.186Z,2.42
2017-08-06T19:33:48.746Z,2.05
2017-08-06T19:36:16.259Z,1.75
2017-08-06T19:38:43.800Z,1.40
2017-08-06T19:41:12.084Z,2.15
2017-08-06T19:43:39.620Z,2.10
2017-08-06T19:46:07.803Z,2.15
2017-08-06T19:48:35.383Z,2.80
2017-08-06T19:51:02.914Z,2.20
2017-08-06T19:53:30.455Z,4.10
2017-08-06T19:55:58.138Z,3.33
2017-08-06T19:58:25.674Z,3.10
2017-08-06T20:00:53.215Z,3.08
2017-08-06T20:03:20.723Z,3.00
2017-08-06T20:05:48.345Z,3.00
2017-08-06T20:08:16.005Z,2.78
2017-08-06T20:10:44.278Z,3.15
2017-08-06T20:13:11.842Z,2.80
2017-08-06T20:15:39.365Z,3.25
2017-08-06T20:18:07.656Z,2.90
2017-08-06T20:20:36.917Z,3.20
2017-08-06T20:23:05.711Z,4.15
2017-08-06T20:25:34.009Z,3.47
2017-08-06T20:28:01.501Z,3.42
2017-08-06T20:30:29.018Z,5.72
2017-08-06T20:32:58.076Z,3.22
2017-08-06T20:35:26.392Z,3.97
2017-08-06T20:37:57.620Z,3.25
2017-08-06T20:40:25.450Z,3.90
2017-08-06T20:42:52.998Z,3.58
2017-08-06T20:45:20.871Z,3.40
2017-08-06T20:47:48.736Z,3.80
2017-08-06T20:50:16.366Z,3.60
2017-08-06T20:52:43.945Z,3.33
2017-08-06T20:55:11.594Z,4.18
2017-08-06T20:57:39.873Z,2.80
2017-08-06T21:00:08.723Z,3.22
2017-08-06T21:02:36.556Z,2.40
2017-08-06T21:05:04.381Z,3.35
2017-08-06T21:07:31.934Z,2.72
2017-08-06T21:09:59.422Z,3.00
2017-08-06T21:12:26.947Z,2.45
2017-08-06T21:14:54.605Z,2.42
2017-08-06T21:17:22.154Z,2.72
2017-08-06T21:19:49.676Z,2.15
2017-08-06T21:22:17.186Z,2.75
2017-08-06T21:24:46.180Z,2.80
2017-08-06T21:27:14.820Z,3.05
2017-08-06T21:29:42.374Z,3.20
2017-08-06T21:32:09.941Z,3.00
2017-08-06T21:34:37.437Z,3.22
2017-08-06T21:37:04.941Z,3.80
2017-08-06T21:39:33.750Z,2.75
2017-08-06T21:42:01.290Z,3.83
2017-08-06T21:44:28.809Z,5.30
2017-08-06T21:46:56.508Z,9.50
2017-08-06T21:49:25.001Z,7.60
2017-08-06T21:51:52.513Z,4.05
2017-08-06T21:54:20.005Z,5.03
2017-08-06T21:56:48.296Z,4.22
2017-08-06T21:59:15.792Z,3.50
2017-08-06T22:01:44.092Z,3.30
2017-08-06T22:04:11.634Z,2.08
2017-08-06T22:06:39.243Z,2.90
2017-08-06T22:09:06.810Z,2.15
2017-08-06T22:11:34.342Z,2.60
2017-08-06T22:14:01.939Z,7.35
2017-08-06T22:16:29.457Z,8.30
2017-08-06T22:18:57.050Z,5.70
2017-08-06T22:21:24.535Z,3.40
2017-08-06T22:23:52.263Z,3.12
2017-08-06T22:26:21.675Z,4.90
2017-08-06T22:28:49.192Z,4.32
2017-08-06T22:31:16.685Z,3.33
2017-08-06T22:33:44.307Z,4.05
2017-08-06T22:36:11.797Z,3.97
2017-08-06T22:38:39.423Z,4.30
2017-08-06T22:41:07.019Z,6.35
2017-08-06T22:43:35.402Z,6.30
2017-08-06T22:46:02.910Z,8.00
2017-08-06T22:48:30.418Z,7.03
2017-08-06T22:50:58.750Z,9.02
2017-08-06T22:53:26.306Z,9.10
2017-08-06T22:55:53.841Z,6.03
2017-08-06T22:58:21.356Z,7.78
2017-08-06T23:00:48.933Z,8.27
2017-08-06T23:03:17.372Z,8.27
2017-08-06T23:05:44.914Z,6.25
2017-08-06T23:08:12.451Z,7.22
2017-08-06T23:10:39.987Z,6.37
2017-08-06T23:13:09.067Z,7.43
2017-08-06T23:15:37.347Z,7.20
2017-08-06T23:18:04.944Z,7.32
2017-08-06T23:20:32.457Z,9.30
2017-08-06T23:22:59.949Z,10.07
2017-08-06T23:25:28.213Z,9.98
2017-08-06T23:27:55.800Z,9.00
2017-08-06T23:30:23.303Z,8.65
2017-08-06T23:32:50.826Z,7.10
2017-08-06T23:35:18.338Z,9.18
2017-08-06T23:37:45.852Z,8.10
2017-08-06T23:40:13.357Z,7.35
2017-08-06T23:42:40.903Z,7.93
2017-08-06T23:45:08.404Z,7.30
2017-08-06T23:47:36.054Z,8.13
2017-08-06T23:50:03.641Z,8.38
2017-08-06T23:52:31.212Z,7.40
2017-08-06T23:54:58.711Z,8.07
2017-08-06T23:57:26.201Z,6.95
2017-08-06T23:59:54.598Z,7.25
